sensor_id;sensor_type;location;lat;lon;timestamp;pressure;altitude;pressure_sealevel;temperature;humidity
44734;BME280;30462;52.446;-1.930;2023-05-01T00:00:18;100336.1836;;;;
44734;BME280;30462;52.446;-1.930;2023-05-01T00:01:18;100334.9336;;;;
44734;BME280;30462;52.446;-1.930;2023-05-01T00:02:17;100332.8945;;;;
44734;BME280;30462;52.446;-1.930;2023-05-01T00:03:18;100335.9727;;;;
44734;BME280;30462;52.446;-1.930;2023-05-01T00:04:18;100333.5625;;;;
44734;BME280;30462;52.446;-1.930;2023-05-01T00:05:18;100329.7266;;;;
44734;BME280;30462;52.446;-1.930;2023-05-01T00:06:18;100327.9063;;;;
44734;BME280;30462;52.446;-1.930;2023-05-01T00:07:17;100328.7266;;;;
44734;BME280;30462;52.446;-1.930;2023-05-01T00:08:19;100329.4961;;;;
44734;BME280;30462;52.446;-1.930;2023-05-01T00:09:17;100329.2227;;;;
44734;BME280;30462;52.446;-1.930;2023-05-01T00:10:18;100328.3477;;;;
44734;BME280;30462;52.446;-1.930;2023-05-01T00:11:18;100330.8711;;;;
44734;BME280;30462;52.446;-1.930;2023-05-01T00:12:18;100327.7578;;;;
44734;BME280;30462;52.446;-1.930;2023-05-01T00:13:18;100326.2695;;;;
44734;BME280;30462;52.446;-1.930;2023-05-01T00:14:17;100329.2266;;;;
44734;BME280;30462;52.446;-1.930;2023-05-01T00:15:18;100327.043;;;;
44734;BME280;30462;52.446;-1.930;2023-05-01T00:16:18;100324.6328;;;;
44734;BME280;30462;52.446;-1.930;2023-05-01T00:17:19;100324.5156;;;;
44734;BME280;30462;52.446;-1.930;2023-05-01T00:18:18;100324.4063;;;;
44734;BME280;30462;52.446;-1.930;2023-05-01T00:19:17;100326.332;;;;
44734;BME280;30462;52.446;-1.930;2023-05-01T00:20:18;100327.5898;;;;
44734;BME280;30462;52.446;-1.930;2023-05-01T00:21:18;100329.0742;;;;
44734;BME280;30462;52.446;-1.930;2023-05-01T00:22:18;100328.3125;;;;
44734;BME280;30462;52.446;-1.930;2023-05-01T00:23:18;100327.707;;;;
44734;BME280;30462;52.446;-1.930;2023-05-01T00:24:18;100323.3828;;;;
44734;BME280;30462;52.446;-1.930;2023-05-01T00:25:18;100320.3672;;;;
44734;BME280;30462;52.446;-1.930;2023-05-01T00:26:17;100319.3164;;;;
44734;BME280;30462;52.446;-1.930;2023-05-01T00:27:18;100317.5195;;;;
44734;BME280;30462;52.446;-1.930;2023-05-01T00:28:18;100318.3906;;;;
44734;BME280;30462;52.446;-1.930;2023-05-01T00:29:18;100317.2969;;;;
44734;BME280;30462;52.446;-1.930;2023-05-01T00:30:18;100318.75;;;;
44734;BME280;30462;52.446;-1.930;2023-05-01T00:31:17;100319.7773;;;;
44734;BME280;30462;52.446;-1.930;2023-05-01T00:32:17;100321.4297;;;;
44734;BME280;30462;52.446;-1.930;2023-05-01T00:33:18;100322.1328;;;;
44734;BME280;30462;52.446;-1.930;2023-05-01T00:34:18;100323.5117;;;;
44734;BME280;30462;52.446;-1.930;2023-05-01T00:35:18;100322.4648;;;;
44734;BME280;30462;52.446;-1.930;2023-05-01T00:36:18;100317.9219;;;;
44734;BME280;30462;52.446;-1.930;2023-05-01T00:37:18;100318.3008;;;;
44734;BME280;30462;52.446;-1.930;2023-05-01T00:38:17;100314.1328;;;;
44734;BME280;30462;52.446;-1.930;2023-05-01T00:39:18;100317.9141;;;;
44734;BME280;30462;52.446;-1.930;2023-05-01T00:40:18;100317.6445;;;;
44734;BME280;30462;52.446;-1.930;2023-05-01T00:41:18;100318.2383;;;;
44734;BME280;30462;52.446;-1.930;2023-05-01T00:42:17;100318.6172;;;;
44734;BME280;30462;52.446;-1.930;2023-05-01T00:43:17;100317.4727;;;;
44734;BME280;30462;52.446;-1.930;2023-05-01T00:44:18;100319.0117;;;;
44734;BME280;30462;52.446;-1.930;2023-05-01T00:45:18;100318.2422;;;;
44734;BME280;30462;52.446;-1.930;2023-05-01T00:46:18;100318.6172;;;;
44734;BME280;30462;52.446;-1.930;2023-05-01T00:47:18;100317.7344;;;;
44734;BME280;30462;52.446;-1.930;2023-05-01T00:48:18;100314.9492;;;;
44734;BME280;30462;52.446;-1.930;2023-05-01T00:49:18;100310.8516;;;;
44734;BME280;30462;52.446;-1.930;2023-05-01T00:50:18;100313.1953;;;;
44734;BME280;30462;52.446;-1.930;2023-05-01T00:51:18;100309.6172;;;;
44734;BME280;30462;52.446;-1.930;2023-05-01T00:52:19;100310.1289;;;;
44734;BME280;30462;52.446;-1.930;2023-05-01T00:53:18;100317.2813;;;;
44734;BME280;30462;52.446;-1.930;2023-05-01T00:54:18;100314.1211;;;;
44734;BME280;30462;52.446;-1.930;2023-05-01T00:55:18;100313.9492;;;;
44734;BME280;30462;52.446;-1.930;2023-05-01T00:56:17;100313.4922;;;;
44734;BME280;30462;52.446;-1.930;2023-05-01T00:57:18;100316.6758;;;;
44734;BME280;30462;52.446;-1.930;2023-05-01T00:58:18;100314.3789;;;;
44734;BME280;30462;52.446;-1.930;2023-05-01T00:59:18;100313.2813;;;;
44734;BME280;30462;52.446;-1.930;2023-05-01T01:00:18;100309.6055;;;;
44734;BME280;30462;52.446;-1.930;2023-05-01T01:01:18;100313.1992;;;;
44734;BME280;30462;52.446;-1.930;2023-05-01T01:02:17;100311.4414;;;;
44734;BME280;30462;52.446;-1.930;2023-05-01T01:03:18;100314.5859;;;;
44734;BME280;30462;52.446;-1.930;2023-05-01T01:04:19;100311.0781;;;;
44734;BME280;30462;52.446;-1.930;2023-05-01T01:05:17;100309.2188;;;;
44734;BME280;30462;52.446;-1.930;2023-05-01T01:06:19;100307.7422;;;;
44734;BME280;30462;52.446;-1.930;2023-05-01T01:07:21;100307.4023;;;;
44734;BME280;30462;52.446;-1.930;2023-05-01T01:08:19;100307.5117;;;;
44734;BME280;30462;52.446;-1.930;2023-05-01T01:10:21;100303.7266;;;;
44734;BME280;30462;52.446;-1.930;2023-05-01T01:11:19;100298.4688;;;;
44734;BME280;30462;52.446;-1.930;2023-05-01T01:12:23;100299.5469;;;;
44734;BME280;30462;52.446;-1.930;2023-05-01T01:13:19;100299.7539;;;;
44734;BME280;30462;52.446;-1.930;2023-05-01T01:14:18;100298.1758;;;;
44734;BME280;30462;52.446;-1.930;2023-05-01T01:15:20;100294.6797;;;;
44734;BME280;30462;52.446;-1.930;2023-05-01T01:16:22;100292.8594;;;;
44734;BME280;30462;52.446;-1.930;2023-05-01T01:17:20;100290.1367;;;;
44734;BME280;30462;52.446;-1.930;2023-05-01T01:18:19;100287.0195;;;;
44734;BME280;30462;52.446;-1.930;2023-05-01T01:20:20;100285.5078;;;;
44734;BME280;30462;52.446;-1.930;2023-05-01T01:21:25;100280.3047;;;;
44734;BME280;30462;52.446;-1.930;2023-05-01T01:22:19;100283.1719;;;;
44734;BME280;30462;52.446;-1.930;2023-05-01T01:31:19;100267.918;;;;
44734;BME280;30462;52.446;-1.930;2023-05-01T01:34:18;100272.9023;;;;
44734;BME280;30462;52.446;-1.930;2023-05-01T01:35:18;100272.0898;;;;
44734;BME280;30462;52.446;-1.930;2023-05-01T01:36:19;100270.125;;;;
44734;BME280;30462;52.446;-1.930;2023-05-01T01:37:19;100268.2578;;;;
44734;BME280;30462;52.446;-1.930;2023-05-01T01:38:20;100271.9219;;;;
44734;BME280;30462;52.446;-1.930;2023-05-01T01:40:19;100270.1523;;;;
44734;BME280;30462;52.446;-1.930;2023-05-01T01:41:19;100269.4453;;;;
44734;BME280;30462;52.446;-1.930;2023-05-01T01:42:19;100269.0781;;;;
44734;BME280;30462;52.446;-1.930;2023-05-01T01:43:18;100267.5938;;;;
44734;BME280;30462;52.446;-1.930;2023-05-01T01:44:19;100265.6758;;;;
44734;BME280;30462;52.446;-1.930;2023-05-01T01:45:21;100265.9492;;;;
44734;BME280;30462;52.446;-1.930;2023-05-01T01:46:18;100265.625;;;;
44734;BME280;30462;52.446;-1.930;2023-05-01T01:47:18;100262.957;;;;
44734;BME280;30462;52.446;-1.930;2023-05-01T01:48:21;100264.9727;;;;
44734;BME280;30462;52.446;-1.930;2023-05-01T01:49:19;100262.7227;;;;
44734;BME280;30462;52.446;-1.930;2023-05-01T01:50:19;100260.375;;;;
44734;BME280;30462;52.446;-1.930;2023-05-01T01:51:18;100255.8438;;;;
44734;BME280;30462;52.446;-1.930;2023-05-01T01:52:17;100260.4883;;;;
44734;BME280;30462;52.446;-1.930;2023-05-01T01:53:18;100253.6563;;;;
44734;BME280;30462;52.446;-1.930;2023-05-01T01:54:18;100254.1484;;;;
44734;BME280;30462;52.446;-1.930;2023-05-01T01:55:20;100250.3125;;;;
44734;BME280;30462;52.446;-1.930;2023-05-01T01:56:19;100252.332;;;;
44734;BME280;30462;52.446;-1.930;2023-05-01T01:57:18;100249.9727;;;;
44734;BME280;30462;52.446;-1.930;2023-05-01T01:58:17;100248.1211;;;;
44734;BME280;30462;52.446;-1.930;2023-05-01T01:59:17;100245.2813;;;;
44734;BME280;30462;52.446;-1.930;2023-05-01T02:00:18;100240.7891;;;;
44734;BME280;30462;52.446;-1.930;2023-05-01T02:01:18;100241.2695;;;;
44734;BME280;30462;52.446;-1.930;2023-05-01T02:02:18;100238.6445;;;;
44734;BME280;30462;52.446;-1.930;2023-05-01T02:03:18;100236.5156;;;;
44734;BME280;30462;52.446;-1.930;2023-05-01T02:04:18;100238.5859;;;;
44734;BME280;30462;52.446;-1.930;2023-05-01T02:05:18;100236.5;;;;
44734;BME280;30462;52.446;-1.930;2023-05-01T02:06:18;100236.8438;;;;
44734;BME280;30462;52.446;-1.930;2023-05-01T02:07:18;100232.5156;;;;
44734;BME280;30462;52.446;-1.930;2023-05-01T02:08:18;100235.0234;;;;
44734;BME280;30462;52.446;-1.930;2023-05-01T02:09:18;100234.582;;;;
44734;BME280;30462;52.446;-1.930;2023-05-01T02:10:18;100233.8164;;;;
44734;BME280;30462;52.446;-1.930;2023-05-01T02:11:18;100235.7148;;;;
44734;BME280;30462;52.446;-1.930;2023-05-01T02:12:18;100232.4336;;;;
44734;BME280;30462;52.446;-1.930;2023-05-01T02:13:18;100235.4375;;;;
44734;BME280;30462;52.446;-1.930;2023-05-01T02:14:18;100236.5391;;;;
44734;BME280;30462;52.446;-1.930;2023-05-01T02:15:18;100239.3633;;;;
44734;BME280;30462;52.446;-1.930;2023-05-01T02:16:18;100240.1289;;;;
44734;BME280;30462;52.446;-1.930;2023-05-01T02:17:18;100237.8281;;;;
44734;BME280;30462;52.446;-1.930;2023-05-01T02:18:18;100237.2344;;;;
44734;BME280;30462;52.446;-1.930;2023-05-01T02:19:17;100235.043;;;;
44734;BME280;30462;52.446;-1.930;2023-05-01T02:20:18;100232.9258;;;;
44734;BME280;30462;52.446;-1.930;2023-05-01T02:21:18;100233.6172;;;;
44734;BME280;30462;52.446;-1.930;2023-05-01T02:22:18;100231.5508;;;;
44734;BME280;30462;52.446;-1.930;2023-05-01T02:23:18;100230.1289;;;;
44734;BME280;30462;52.446;-1.930;2023-05-01T02:24:18;100233.2422;;;;
44734;BME280;30462;52.446;-1.930;2023-05-01T02:25:17;100230.668;;;;
44734;BME280;30462;52.446;-1.930;2023-05-01T02:26:18;100230.1758;;;;
44734;BME280;30462;52.446;-1.930;2023-05-01T02:27:19;100234.9805;;;;
44734;BME280;30462;52.446;-1.930;2023-05-01T02:28:19;100230.5547;;;;
44734;BME280;30462;52.446;-1.930;2023-05-01T02:29:17;100231.7539;;;;
44734;BME280;30462;52.446;-1.930;2023-05-01T02:30:18;100226.457;;;;
44734;BME280;30462;52.446;-1.930;2023-05-01T02:31:18;100228.25;;;;
44734;BME280;30462;52.446;-1.930;2023-05-01T02:32:18;100228.5898;;;;
44734;BME280;30462;52.446;-1.930;2023-05-01T02:33:18;100225.8594;;;;
44734;BME280;30462;52.446;-1.930;2023-05-01T02:34:17;100225.3555;;;;
44734;BME280;30462;52.446;-1.930;2023-05-01T02:35:18;100222.957;;;;
44734;BME280;30462;52.446;-1.930;2023-05-01T02:36:18;100225.7539;;;;
44734;BME280;30462;52.446;-1.930;2023-05-01T02:37:18;100223.2227;;;;
44734;BME280;30462;52.446;-1.930;2023-05-01T02:38:18;100220.4453;;;;
44734;BME280;30462;52.446;-1.930;2023-05-01T02:39:18;100220.2656;;;;
44734;BME280;30462;52.446;-1.930;2023-05-01T02:40:18;100220.5469;;;;
44734;BME280;30462;52.446;-1.930;2023-05-01T02:41:18;100217.4805;;;;
44734;BME280;30462;52.446;-1.930;2023-05-01T02:42:18;100219.7188;;;;
44734;BME280;30462;52.446;-1.930;2023-05-01T02:43:18;100219.7109;;;;
44734;BME280;30462;52.446;-1.930;2023-05-01T02:44:18;100221.8438;;;;
44734;BME280;30462;52.446;-1.930;2023-05-01T02:45:19;100226.6523;;;;
44734;BME280;30462;52.446;-1.930;2023-05-01T02:46:18;100222.332;;;;
44734;BME280;30462;52.446;-1.930;2023-05-01T02:47:19;100221.957;;;;
44734;BME280;30462;52.446;-1.930;2023-05-01T02:48:20;100217.5859;;;;
44734;BME280;30462;52.446;-1.930;2023-05-01T02:49:17;100217.6953;;;;
44734;BME280;30462;52.446;-1.930;2023-05-01T02:50:18;100217.0586;;;;
44734;BME280;30462;52.446;-1.930;2023-05-01T02:51:18;100218.2461;;;;
44734;BME280;30462;52.446;-1.930;2023-05-01T02:52:18;100219.1797;;;;
44734;BME280;30462;52.446;-1.930;2023-05-01T02:53:18;100220.6094;;;;
44734;BME280;30462;52.446;-1.930;2023-05-01T02:54:17;100220.1602;;;;
44734;BME280;30462;52.446;-1.930;2023-05-01T02:55:18;100218.7383;;;;
44734;BME280;30462;52.446;-1.930;2023-05-01T02:56:18;100219.2813;;;;
44734;BME280;30462;52.446;-1.930;2023-05-01T02:57:18;100215.9961;;;;
44734;BME280;30462;52.446;-1.930;2023-05-01T02:58:18;100213.6602;;;;
44734;BME280;30462;52.446;-1.930;2023-05-01T02:59:18;100213.8242;;;;
44734;BME280;30462;52.446;-1.930;2023-05-01T03:00:18;100209.3984;;;;
44734;BME280;30462;52.446;-1.930;2023-05-01T03:01:18;100210.1016;;;;
44734;BME280;30462;52.446;-1.930;2023-05-01T03:02:17;100209.8281;;;;
44734;BME280;30462;52.446;-1.930;2023-05-01T03:03:18;100210.75;;;;
44734;BME280;30462;52.446;-1.930;2023-05-01T03:04:18;100210.7969;;;;
44734;BME280;30462;52.446;-1.930;2023-05-01T03:05:18;100211.9063;;;;
44734;BME280;30462;52.446;-1.930;2023-05-01T03:06:17;100211.3516;;;;
44734;BME280;30462;52.446;-1.930;2023-05-01T03:07:17;100208.8945;;;;
44734;BME280;30462;52.446;-1.930;2023-05-01T03:08:18;100212.2188;;;;
44734;BME280;30462;52.446;-1.930;2023-05-01T03:09:18;100211.6133;;;;
44734;BME280;30462;52.446;-1.930;2023-05-01T03:10:18;100211.8359;;;;
44734;BME280;30462;52.446;-1.930;2023-05-01T03:11:18;100209.4922;;;;
44734;BME280;30462;52.446;-1.930;2023-05-01T03:12:17;100210.8125;;;;
44734;BME280;30462;52.446;-1.930;2023-05-01T03:13:18;100210.8008;;;;
44734;BME280;30462;52.446;-1.930;2023-05-01T03:14:19;100210.1016;;;;
44734;BME280;30462;52.446;-1.930;2023-05-01T03:15:17;100206.9844;;;;
44734;BME280;30462;52.446;-1.930;2023-05-01T03:16:18;100208.7344;;;;
44734;BME280;30462;52.446;-1.930;2023-05-01T03:17:18;100207.1914;;;;
44734;BME280;30462;52.446;-1.930;2023-05-01T03:18:18;100207.3047;;;;
44734;BME280;30462;52.446;-1.930;2023-05-01T03:19:18;100205.6016;;;;
44734;BME280;30462;52.446;-1.930;2023-05-01T03:20:18;100210.4023;;;;
44734;BME280;30462;52.446;-1.930;2023-05-01T03:21:18;100211.8789;;;;
44734;BME280;30462;52.446;-1.930;2023-05-01T03:22:18;100207.7188;;;;
44734;BME280;30462;52.446;-1.930;2023-05-01T03:23:18;100208.7578;;;;
44734;BME280;30462;52.446;-1.930;2023-05-01T03:24:17;100208.2578;;;;
44734;BME280;30462;52.446;-1.930;2023-05-01T03:25:18;100211.1758;;;;
44734;BME280;30462;52.446;-1.930;2023-05-01T03:26:18;100211.3945;;;;
44734;BME280;30462;52.446;-1.930;2023-05-01T03:27:17;100210.4688;;;;
44734;BME280;30462;52.446;-1.930;2023-05-01T03:28:17;100208.6445;;;;
44734;BME280;30462;52.446;-1.930;2023-05-01T03:29:18;100203.25;;;;
44734;BME280;30462;52.446;-1.930;2023-05-01T03:30:18;100210.7227;;;;
44734;BME280;30462;52.446;-1.930;2023-05-01T03:31:18;100208.6523;;;;
44734;BME280;30462;52.446;-1.930;2023-05-01T03:32:17;100208.875;;;;
44734;BME280;30462;52.446;-1.930;2023-05-01T03:33:18;100206.2969;;;;
44734;BME280;30462;52.446;-1.930;2023-05-01T03:34:18;100209.5352;;;;
44734;BME280;30462;52.446;-1.930;2023-05-01T03:35:18;100212.9805;;;;
44734;BME280;30462;52.446;-1.930;2023-05-01T03:36:18;100212.5352;;;;
44734;BME280;30462;52.446;-1.930;2023-05-01T03:37:17;100211.2773;;;;
44734;BME280;30462;52.446;-1.930;2023-05-01T03:38:17;100212.2656;;;;
44734;BME280;30462;52.446;-1.930;2023-05-01T03:39:18;100212.3125;;;;
44734;BME280;30462;52.446;-1.930;2023-05-01T03:40:18;100208.5859;;;;
44734;BME280;30462;52.446;-1.930;2023-05-01T03:41:18;100211.1016;;;;
44734;BME280;30462;52.446;-1.930;2023-05-01T03:42:18;100212.5742;;;;
44734;BME280;30462;52.446;-1.930;2023-05-01T03:43:18;100213.0078;;;;
44734;BME280;30462;52.446;-1.930;2023-05-01T03:44:18;100207.8711;;;;
44734;BME280;30462;52.446;-1.930;2023-05-01T03:45:18;100206.1016;;;;
44734;BME280;30462;52.446;-1.930;2023-05-01T03:46:18;100206.6484;;;;
44734;BME280;30462;52.446;-1.930;2023-05-01T03:47:18;100206.1016;;;;
44734;BME280;30462;52.446;-1.930;2023-05-01T03:48:18;100208.8672;;;;
44734;BME280;30462;52.446;-1.930;2023-05-01T03:49:18;100207.6172;;;;
44734;BME280;30462;52.446;-1.930;2023-05-01T03:50:17;100207.1289;;;;
44734;BME280;30462;52.446;-1.930;2023-05-01T03:51:18;100213.1406;;;;
44734;BME280;30462;52.446;-1.930;2023-05-01T03:52:18;100212.332;;;;
44734;BME280;30462;52.446;-1.930;2023-05-01T03:53:18;100217.3711;;;;
44734;BME280;30462;52.446;-1.930;2023-05-01T03:54:18;100211.0664;;;;
44734;BME280;30462;52.446;-1.930;2023-05-01T03:55:18;100215.3945;;;;
44734;BME280;30462;52.446;-1.930;2023-05-01T03:56:18;100215.4492;;;;
44734;BME280;30462;52.446;-1.930;2023-05-01T03:57:18;100215.0039;;;;
44734;BME280;30462;52.446;-1.930;2023-05-01T03:58:17;100213.4805;;;;
44734;BME280;30462;52.446;-1.930;2023-05-01T03:59:18;100212.9961;;;;
44734;BME280;30462;52.446;-1.930;2023-05-01T04:00:18;100212.5039;;;;
44734;BME280;30462;52.446;-1.930;2023-05-01T04:01:18;100215.1758;;;;
44734;BME280;30462;52.446;-1.930;2023-05-01T04:02:18;100214.0273;;;;
44734;BME280;30462;52.446;-1.930;2023-05-01T04:03:18;100213.6406;;;;
44734;BME280;30462;52.446;-1.930;2023-05-01T04:04:17;100214.4727;;;;
44734;BME280;30462;52.446;-1.930;2023-05-01T04:05:18;100210.4688;;;;
44734;BME280;30462;52.446;-1.930;2023-05-01T04:06:18;100209.4883;;;;
44734;BME280;30462;52.446;-1.930;2023-05-01T04:07:18;100208.9336;;;;
44734;BME280;30462;52.446;-1.930;2023-05-01T04:08:18;100212.8789;;;;
44734;BME280;30462;52.446;-1.930;2023-05-01T04:09:17;100213.7031;;;;
44734;BME280;30462;52.446;-1.930;2023-05-01T04:10:18;100212;;;;
44734;BME280;30462;52.446;-1.930;2023-05-01T04:11:18;100212.2422;;;;
44734;BME280;30462;52.446;-1.930;2023-05-01T04:12:18;100216.2266;;;;
44734;BME280;30462;52.446;-1.930;2023-05-01T04:13:18;100210.0156;;;;
44734;BME280;30462;52.446;-1.930;2023-05-01T04:14:18;100211.0508;;;;
44734;BME280;30462;52.446;-1.930;2023-05-01T04:15:17;100210.3242;;;;
44734;BME280;30462;52.446;-1.930;2023-05-01T04:16:18;100211.207;;;;
44734;BME280;30462;52.446;-1.930;2023-05-01T04:17:18;100214.7109;;;;
44734;BME280;30462;52.446;-1.930;2023-05-01T04:18:18;100208.7617;;;;
44734;BME280;30462;52.446;-1.930;2023-05-01T04:19:18;100211.9375;;;;
44734;BME280;30462;52.446;-1.930;2023-05-01T04:20:17;100209.3672;;;;
44734;BME280;30462;52.446;-1.930;2023-05-01T04:21:18;100212;;;;
44734;BME280;30462;52.446;-1.930;2023-05-01T04:22:18;100212.207;;;;
44734;BME280;30462;52.446;-1.930;2023-05-01T04:23:18;100210.5742;;;;
44734;BME280;30462;52.446;-1.930;2023-05-01T04:24:17;100210.082;;;;
44734;BME280;30462;52.446;-1.930;2023-05-01T04:25:18;100210.5781;;;;
44734;BME280;30462;52.446;-1.930;2023-05-01T04:26:18;100211.0352;;;;
44734;BME280;30462;52.446;-1.930;2023-05-01T04:27:18;100212.9961;;;;
44734;BME280;30462;52.446;-1.930;2023-05-01T04:28:18;100208.8359;;;;
44734;BME280;30462;52.446;-1.930;2023-05-01T04:29:18;100208.6719;;;;
44734;BME280;30462;52.446;-1.930;2023-05-01T04:30:18;100208.6836;;;;
44734;BME280;30462;52.446;-1.930;2023-05-01T04:31:18;100209.9375;;;;
44734;BME280;30462;52.446;-1.930;2023-05-01T04:32:18;100210.6992;;;;
44734;BME280;30462;52.446;-1.930;2023-05-01T04:33:18;100211.5781;;;;
44734;BME280;30462;52.446;-1.930;2023-05-01T04:34:18;100214.9258;;;;
44734;BME280;30462;52.446;-1.930;2023-05-01T04:35:18;100212.0234;;;;
44734;BME280;30462;52.446;-1.930;2023-05-01T04:36:18;100208.5703;;;;
44734;BME280;30462;52.446;-1.930;2023-05-01T04:37:18;100208.9727;;;;
44734;BME280;30462;52.446;-1.930;2023-05-01T04:38:18;100208.8477;;;;
44734;BME280;30462;52.446;-1.930;2023-05-01T04:39:18;100208.207;;;;
44734;BME280;30462;52.446;-1.930;2023-05-01T04:40:18;100207.7617;;;;
44734;BME280;30462;52.446;-1.930;2023-05-01T04:41:17;100207.3711;;;;
44734;BME280;30462;52.446;-1.930;2023-05-01T04:42:18;100208.5234;;;;
44734;BME280;30462;52.446;-1.930;2023-05-01T04:43:18;100213.832;;;;
44734;BME280;30462;52.446;-1.930;2023-05-01T04:44:17;100215.5781;;;;
44734;BME280;30462;52.446;-1.930;2023-05-01T04:45:17;100215.582;;;;
44734;BME280;30462;52.446;-1.930;2023-05-01T04:46:18;100215.8633;;;;
44734;BME280;30462;52.446;-1.930;2023-05-01T04:47:18;100216.6914;;;;
44734;BME280;30462;52.446;-1.930;2023-05-01T04:48:18;100220.5039;;;;
44734;BME280;30462;52.446;-1.930;2023-05-01T04:49:18;100217.7734;;;;
44734;BME280;30462;52.446;-1.930;2023-05-01T04:50:18;100217.0742;;;;
44734;BME280;30462;52.446;-1.930;2023-05-01T04:51:17;100219.543;;;;
44734;BME280;30462;52.446;-1.930;2023-05-01T04:52:18;100217.1797;;;;
44734;BME280;30462;52.446;-1.930;2023-05-01T04:53:18;100216.7461;;;;
44734;BME280;30462;52.446;-1.930;2023-05-01T04:54:18;100215.5313;;;;
44734;BME280;30462;52.446;-1.930;2023-05-01T04:55:17;100217.5625;;;;
44734;BME280;30462;52.446;-1.930;2023-05-01T04:56:17;100216.9688;;;;
44734;BME280;30462;52.446;-1.930;2023-05-01T04:57:18;100221.0117;;;;
44734;BME280;30462;52.446;-1.930;2023-05-01T04:58:18;100221.457;;;;
44734;BME280;30462;52.446;-1.930;2023-05-01T04:59:18;100224.0859;;;;
44734;BME280;30462;52.446;-1.930;2023-05-01T05:00:18;100222.9766;;;;
44734;BME280;30462;52.446;-1.930;2023-05-01T05:01:18;100223.7578;;;;
44734;BME280;30462;52.446;-1.930;2023-05-01T05:02:18;100227.3555;;;;
44734;BME280;30462;52.446;-1.930;2023-05-01T05:03:17;100226;;;;
44734;BME280;30462;52.446;-1.930;2023-05-01T05:04:18;100226.5391;;;;
44734;BME280;30462;52.446;-1.930;2023-05-01T05:05:18;100229.6484;;;;
44734;BME280;30462;52.446;-1.930;2023-05-01T05:06:18;100229.7148;;;;
44734;BME280;30462;52.446;-1.930;2023-05-01T05:07:18;100227.7891;;;;
44734;BME280;30462;52.446;-1.930;2023-05-01T05:08:18;100229.9297;;;;
44734;BME280;30462;52.446;-1.930;2023-05-01T05:09:18;100232.2305;;;;
44734;BME280;30462;52.446;-1.930;2023-05-01T05:10:18;100232.4102;;;;
44734;BME280;30462;52.446;-1.930;2023-05-01T05:11:18;100233.8828;;;;
44734;BME280;30462;52.446;-1.930;2023-05-01T05:12:18;100236.4453;;;;
44734;BME280;30462;52.446;-1.930;2023-05-01T05:13:17;100237.4961;;;;
44734;BME280;30462;52.446;-1.930;2023-05-01T05:14:17;100237.6523;;;;
44734;BME280;30462;52.446;-1.930;2023-05-01T05:15:18;100238.7461;;;;
44734;BME280;30462;52.446;-1.930;2023-05-01T05:16:18;100237.8359;;;;
44734;BME280;30462;52.446;-1.930;2023-05-01T05:17:18;100233.5117;;;;
44734;BME280;30462;52.446;-1.930;2023-05-01T05:18:18;100233.1836;;;;
44734;BME280;30462;52.446;-1.930;2023-05-01T05:19:18;100232.3047;;;;
44734;BME280;30462;52.446;-1.930;2023-05-01T05:20:17;100234.2656;;;;
44734;BME280;30462;52.446;-1.930;2023-05-01T05:21:18;100232.9648;;;;
44734;BME280;30462;52.446;-1.930;2023-05-01T05:22:18;100233.2305;;;;
44734;BME280;30462;52.446;-1.930;2023-05-01T05:23:18;100235.8008;;;;
44734;BME280;30462;52.446;-1.930;2023-05-01T05:24:18;100233.6758;;;;
44734;BME280;30462;52.446;-1.930;2023-05-01T05:25:18;100235.5352;;;;
44734;BME280;30462;52.446;-1.930;2023-05-01T05:26:18;100240.2969;;;;
44734;BME280;30462;52.446;-1.930;2023-05-01T05:27:18;100237.4063;;;;
44734;BME280;30462;52.446;-1.930;2023-05-01T05:28:17;100237.2891;;;;
44734;BME280;30462;52.446;-1.930;2023-05-01T05:29:19;100234.9258;;;;
44734;BME280;30462;52.446;-1.930;2023-05-01T05:30:18;100237.5;;;;
44734;BME280;30462;52.446;-1.930;2023-05-01T05:31:18;100237.1133;;;;
44734;BME280;30462;52.446;-1.930;2023-05-01T05:32:18;100238.7695;;;;
44734;BME280;30462;52.446;-1.930;2023-05-01T05:33:17;100241.8164;;;;
44734;BME280;30462;52.446;-1.930;2023-05-01T05:34:17;100245.8711;;;;
44734;BME280;30462;52.446;-1.930;2023-05-01T05:35:17;100247.0898;;;;
44734;BME280;30462;52.446;-1.930;2023-05-01T05:36:18;100250.375;;;;
44734;BME280;30462;52.446;-1.930;2023-05-01T05:37:18;100244.4531;;;;
44734;BME280;30462;52.446;-1.930;2023-05-01T05:38:18;100247.3633;;;;
44734;BME280;30462;52.446;-1.930;2023-05-01T05:39:19;100245.4961;;;;
44734;BME280;30462;52.446;-1.930;2023-05-01T05:40:17;100246.1563;;;;
44734;BME280;30462;52.446;-1.930;2023-05-01T05:41:17;100248.2813;;;;
44734;BME280;30462;52.446;-1.930;2023-05-01T05:42:17;100252.9375;;;;
44734;BME280;30462;52.446;-1.930;2023-05-01T05:43:18;100255.2461;;;;
44734;BME280;30462;52.446;-1.930;2023-05-01T05:44:18;100255.1406;;;;
44734;BME280;30462;52.446;-1.930;2023-05-01T05:45:18;100255.1758;;;;
44734;BME280;30462;52.446;-1.930;2023-05-01T05:46:18;100257.4219;;;;
44734;BME280;30462;52.446;-1.930;2023-05-01T05:47:18;100257.9766;;;;
44734;BME280;30462;52.446;-1.930;2023-05-01T05:48:18;100257.3828;;;;
44734;BME280;30462;52.446;-1.930;2023-05-01T05:49:18;100255.0234;;;;
44734;BME280;30462;52.446;-1.930;2023-05-01T05:50:18;100252.8359;;;;
44734;BME280;30462;52.446;-1.930;2023-05-01T05:51:18;100257.043;;;;
44734;BME280;30462;52.446;-1.930;2023-05-01T05:52:17;100259.9531;;;;
44734;BME280;30462;52.446;-1.930;2023-05-01T05:53:18;100260.3789;;;;
44734;BME280;30462;52.446;-1.930;2023-05-01T05:54:18;100259.9492;;;;
44734;BME280;30462;52.446;-1.930;2023-05-01T05:55:18;100252.707;;;;
44734;BME280;30462;52.446;-1.930;2023-05-01T05:56:18;100251.0195;;;;
44734;BME280;30462;52.446;-1.930;2023-05-01T05:57:17;100251.5078;;;;
44734;BME280;30462;52.446;-1.930;2023-05-01T05:58:18;100258.1406;;;;
44734;BME280;30462;52.446;-1.930;2023-05-01T05:59:17;100259.1758;;;;